Wetterdaten: Woche 15.04.19 - 21.04.19 (KW16)
Datum Zeit Temp. Aussen Temp. o. S. +5cm Feuchte Auss Luftdruck Regen Sonnenschein Regendauer Solar Windben Empfang
15.04.2019 00:00 5,4 C 3,7 C 3,4 C 79 % 1024,3 hPa 0,0 l/m 0,00 h 0,00 h 0 W/m 4,5 km/h (1 Bft) 98,60 %
15.04.2019 01:00 4,2 C 3,0 C 2,5 C 83 % 1024,6 hPa 0,0 l/m 0,00 h 0,00 h 0 W/m 1,2 km/h (1 Bft) 97,86 %
15.04.2019 02:00 4,0 C 3,3 C 2,8 C 86 % 1024,5 hPa 0,0 l/m 0,00 h 0,00 h 0 W/m 0,9 km/h (0 Bft) 95,94 %
15.04.2019 03:00 4,3 C 3,8 C 3,3 C 88 % 1024,4 hPa 0,0 l/m 0,00 h 0,00 h 0 W/m 2,0 km/h (1 Bft) 97,94 %
15.04.2019 04:00 4,2 C 3,1 C 2,5 C 88 % 1024,2 hPa 0,0 l/m 0,00 h 0,00 h 0 W/m 0,4 km/h (0 Bft) 97,72 %
15.04.2019 05:00 3,5 C 2,5 C 1,9 C 89 % 1023,9 hPa 0,0 l/m 0,00 h 0,00 h 0 W/m 0,2 km/h (0 Bft) 98,52 %
15.04.2019 06:00 3,7 C 3,7 C 3,2 C 91 % 1023,6 hPa 0,0 l/m 0,00 h 0,00 h 5 W/m 0,2 km/h (0 Bft) 97,15 %
15.04.2019 07:00 4,6 C 4,9 C 4,3 C 92 % 1023,7 hPa 0,0 l/m 0,00 h 0,00 h 35 W/m 0,0 km/h (0 Bft) 96,30 %
15.04.2019 08:00 5,4 C 6,1 C 5,2 C 91 % 1023,7 hPa 0,0 l/m 0,00 h 0,00 h 69 W/m 9,3 km/h (2 Bft) 99,57 %
15.04.2019 09:00 7,6 C 12,6 C 9,9 C 86 % 1023,6 hPa 0,0 l/m 0,00 h 0,00 h 98 W/m 8,8 km/h (2 Bft) 95,87 %
15.04.2019 10:00 10,7 C 16,6 C 16,3 C 76 % 1023,5 hPa 0,0 l/m 0,87 h 0,00 h 467 W/m 10,9 km/h (2 Bft) 95,87 %
15.04.2019 11:00 12,5 C 18,9 C 16,3 C 71 % 1023,0 hPa 0,0 l/m 1,00 h 0,00 h 643 W/m 11,7 km/h (2 Bft) 97,22 %
15.04.2019 12:00 14,2 C 20,6 C 15,3 C 66 % 1022,1 hPa 0,0 l/m 1,00 h 0,00 h 746 W/m 11,6 km/h (2 Bft) 94,42 %
15.04.2019 13:00 16,3 C 22,5 C 21,0 C 61 % 1021,1 hPa 0,0 l/m 1,00 h 0,00 h 784 W/m 11,7 km/h (2 Bft) 98,08 %
15.04.2019 14:00 17,3 C 22,3 C 23,2 C 57 % 1020,0 hPa 0,0 l/m 1,00 h 0,00 h 766 W/m 12,8 km/h (3 Bft) 98,65 %
15.04.2019 15:00 18,9 C 23,6 C 19,7 C 54 % 1019,0 hPa 0,0 l/m 0,97 h 0,00 h 674 W/m 13,3 km/h (3 Bft) 97,31 %
15.04.2019 16:00 19,0 C 21,1 C 19,9 C 50 % 1017,9 hPa 0,0 l/m 0,87 h 0,00 h 470 W/m 11,8 km/h (2 Bft) 96,92 %
15.04.2019 17:00 18,9 C 20,3 C 18,1 C 51 % 1017,0 hPa 0,0 l/m 0,97 h 0,00 h 449 W/m 14,4 km/h (3 Bft) 98,08 %
15.04.2019 18:00 18,4 C 17,7 C 15,6 C 49 % 1016,4 hPa 0,0 l/m 0,57 h 0,00 h 185 W/m 11,6 km/h (2 Bft) 97,82 %
15.04.2019 19:00 16,3 C 15,0 C 13,8 C 51 % 1016,0 hPa 0,0 l/m 0,00 h 0,00 h 38 W/m 12,6 km/h (3 Bft) 97,08 %
15.04.2019 20:00 14,5 C 12,9 C 11,8 C 54 % 1016,2 hPa 0,0 l/m 0,00 h 0,00 h 11 W/m 9,6 km/h (2 Bft) 97,79 %
15.04.2019 21:00 12,8 C 11,4 C 10,4 C 58 % 1016,4 hPa 0,0 l/m 0,00 h 0,00 h 0 W/m 9,5 km/h (2 Bft) 98,22 %
15.04.2019 22:00 11,2 C 9,5 C 8,8 C 62 % 1016,3 hPa 0,0 l/m 0,00 h 0,00 h 0 W/m 7,5 km/h (2 Bft) 97,36 %
15.04.2019 23:00 9,9 C 8,2 C 7,2 C 64 % 1016,3 hPa 0,0 l/m 0,00 h 0,00 h 0 W/m 4,9 km/h (1 Bft) 95,23 %
16.04.2019 00:00 8,8 C 7,3 C 6,3 C 66 % 1016,5 hPa 0,0 l/m 0,00 h 0,00 h 0 W/m 4,1 km/h (1 Bft) 99,40 %
16.04.2019 01:00 7,9 C 5,7 C 4,8 C 68 % 1016,5 hPa 0,0 l/m 0,00 h 0,00 h 0 W/m 0,4 km/h (0 Bft) 98,36 %
16.04.2019 02:00 6,6 C 5,0 C 3,9 C 71 % 1016,1 hPa 0,0 l/m 0,00 h 0,00 h 0 W/m 3,1 km/h (1 Bft) 96,06 %
16.04.2019 03:00 5,7 C 4,2 C 3,3 C 74 % 1015,6 hPa 0,0 l/m 0,00 h 0,00 h 0 W/m 2,9 km/h (1 Bft) 96,87 %
16.04.2019 04:00 5,1 C 4,3 C 3,4 C 78 % 1015,2 hPa 0,0 l/m 0,00 h 0,00 h 0 W/m 3,0 km/h (1 Bft) 98,22 %
16.04.2019 05:00 4,8 C 3,9 C 3,0 C 79 % 1015,0 hPa 0,0 l/m 0,00 h 0,00 h 0 W/m 5,6 km/h (1 Bft) 97,79 %
16.04.2019 06:00 4,4 C 3,3 C 2,8 C 81 % 1014,8 hPa 0,0 l/m 0,00 h 0,00 h 8 W/m 6,0 km/h (2 Bft) 97,83 %
16.04.2019 07:00 4,2 C 4,1 C 3,2 C 82 % 1015,0 hPa 0,0 l/m 0,00 h 0,00 h 27 W/m 6,7 km/h (2 Bft) 97,60 %
16.04.2019 08:00 5,3 C 6,5 C 5,1 C 83 % 1015,0 hPa 0,0 l/m 0,00 h 0,00 h 50 W/m 7,1 km/h (2 Bft) 96,67 %
16.04.2019 09:00 9,0 C 15,9 C 12,1 C 75 % 1014,6 hPa 0,0 l/m 0,00 h 0,00 h 65 W/m 7,9 km/h (2 Bft) 96,45 %
16.04.2019 10:00 13,6 C 19,6 C 19,7 C 59 % 1014,4 hPa 0,0 l/m 0,87 h 0,00 h 488 W/m 8,9 km/h (2 Bft) 96,40 %
16.04.2019 11:00 16,4 C 21,4 C 20,1 C 49 % 1014,1 hPa 0,0 l/m 1,00 h 0,00 h 685 W/m 15,0 km/h (3 Bft) 99,36 %
16.04.2019 12:00 18,0 C 22,2 C 18,3 C 43 % 1013,6 hPa 0,0 l/m 1,00 h 0,00 h 783 W/m 23,0 km/h (4 Bft) 96,96 %
16.04.2019 13:00 19,3 C 23,2 C 23,5 C 40 % 1013,1 hPa 0,0 l/m 1,00 h 0,00 h 825 W/m 23,8 km/h (4 Bft) 98,41 %
16.04.2019 14:00 20,3 C 23,6 C 25,3 C 39 % 1013,1 hPa 0,0 l/m 1,00 h 0,00 h 760 W/m 25,9 km/h (4 Bft) 97,50 %
16.04.2019 15:00 20,3 C 22,6 C 20,5 C 43 % 1013,1 hPa 0,0 l/m 1,00 h 0,00 h 607 W/m 23,2 km/h (4 Bft) 95,45 %
16.04.2019 16:00 19,9 C 21,0 C 20,4 C 46 % 1012,9 hPa 0,0 l/m 1,00 h 0,00 h 445 W/m 21,3 km/h (4 Bft) 98,78 %
16.04.2019 17:00 20,2 C 20,7 C 20,1 C 47 % 1012,8 hPa 0,0 l/m 0,90 h 0,00 h 353 W/m 18,8 km/h (3 Bft) 97,03 %
16.04.2019 18:00 19,3 C 18,4 C 18,1 C 50 % 1013,2 hPa 0,0 l/m 0,03 h 0,00 h 97 W/m 18,0 km/h (3 Bft) 96,76 %
16.04.2019 19:00 17,7 C 16,4 C 16,2 C 57 % 1014,1 hPa 0,0 l/m 0,00 h 0,00 h 33 W/m 19,2 km/h (3 Bft) 98,79 %
16.04.2019 20:00 15,9 C 14,6 C 14,4 C 63 % 1015,2 hPa 0,0 l/m 0,00 h 0,00 h 7 W/m 16,1 km/h (3 Bft) 95,92 %
16.04.2019 21:00 14,7 C 13,4 C 13,0 C 67 % 1016,0 hPa 0,0 l/m 0,00 h 0,00 h 0 W/m 8,8 km/h (2 Bft) 98,22 %
16.04.2019 22:00 13,9 C 12,5 C 12,0 C 70 % 1016,5 hPa 0,0 l/m 0,00 h 0,00 h 0 W/m 5,4 km/h (1 Bft) 97,72 %
16.04.2019 23:00 12,9 C 11,7 C 11,1 C 74 % 1016,7 hPa 0,0 l/m 0,00 h 0,00 h 0 W/m 3,6 km/h (1 Bft) 95,86 %
17.04.2019 00:00 12,3 C 11,4 C 10,9 C 78 % 1017,0 hPa 0,0 l/m 0,00 h 0,00 h 0 W/m 8,5 km/h (2 Bft) 99,09 %
17.04.2019 01:00 12,0 C 11,2 C 10,6 C 80 % 1017,2 hPa 0,0 l/m 0,00 h 0,00 h 0 W/m 8,9 km/h (2 Bft) 97,58 %
17.04.2019 02:00 11,9 C 11,2 C 10,6 C 79 % 1017,2 hPa 0,0 l/m 0,00 h 0,00 h 0 W/m 8,0 km/h (2 Bft) 96,15 %
17.04.2019 03:00 11,7 C 10,8 C 10,5 C 80 % 1017,3 hPa 0,0 l/m 0,00 h 0,00 h 0 W/m 10,8 km/h (2 Bft) 98,21 %
17.04.2019 04:00 11,5 C 10,7 C 10,1 C 81 % 1017,3 hPa 0,0 l/m 0,00 h 0,00 h 0 W/m 7,7 km/h (2 Bft) 97,73 %
17.04.2019 05:00 11,3 C 10,6 C 9,9 C 82 % 1017,4 hPa 0,0 l/m 0,00 h 0,00 h 0 W/m 6,3 km/h (2 Bft) 97,58 %
17.04.2019 06:00 11,2 C 10,1 C 9,5 C 84 % 1017,6 hPa 0,0 l/m 0,00 h 0,33 h 5 W/m 5,6 km/h (1 Bft) 96,37 %
17.04.2019 07:00 11,2 C 10,1 C 9,5 C 86 % 1018,0 hPa 0,0 l/m 0,00 h 0,73 h 21 W/m 9,3 km/h (2 Bft) 98,66 %
17.04.2019 08:00 11,2 C 10,8 C 10,1 C 88 % 1018,4 hPa 0,0 l/m 0,00 h 0,53 h 60 W/m 10,0 km/h (2 Bft) 98,15 %
17.04.2019 09:00 11,9 C 12,0 C 11,5 C 88 % 1018,7 hPa 0,0 l/m 0,00 h 0,23 h 147 W/m 15,4 km/h (3 Bft) 96,73 %
17.04.2019 10:00 12,5 C 12,6 C 12,4 C 88 % 1019,2 hPa 0,0 l/m 0,00 h 0,00 h 171 W/m 20,4 km/h (4 Bft) 97,42 %
17.04.2019 11:00 13,6 C 14,6 C 14,4 C 84 % 1019,4 hPa 0,0 l/m 0,53 h 0,03 h 328 W/m 22,5 km/h (4 Bft) 98,96 %
17.04.2019 12:00 14,4 C 14,6 C 14,4 C 78 % 1019,5 hPa 0,0 l/m 0,13 h 0,00 h 207 W/m 23,5 km/h (4 Bft) 96,69 %
17.04.2019 13:00 15,0 C 15,9 C 15,9 C 76 % 1019,7 hPa 0,0 l/m 0,07 h 0,00 h 327 W/m 25,6 km/h (4 Bft) 96,90 %
17.04.2019 14:00 15,6 C 15,8 C 15,8 C 74 % 1019,8 hPa 0,0 l/m 0,00 h 0,00 h 230 W/m 15,8 km/h (3 Bft) 92,92 %
17.04.2019 15:00 16,0 C 17,1 C 16,6 C 73 % 1019,8 hPa 0,0 l/m 0,27 h 0,00 h 271 W/m 8,2 km/h (2 Bft) 90,22 %
17.04.2019 16:00 17,6 C 20,3 C 18,6 C 68 % 1019,6 hPa 0,0 l/m 0,47 h 0,00 h 376 W/m 6,6 km/h (2 Bft) 97,45 %
17.04.2019 17:00 18,9 C 20,7 C 18,8 C 62 % 1019,5 hPa 0,0 l/m 0,90 h 0,00 h 459 W/m 9,3 km/h (2 Bft) 99,23 %
17.04.2019 18:00 19,2 C 18,7 C 17,6 C 60 % 1019,4 hPa 0,0 l/m 0,60 h 0,00 h 236 W/m 10,7 km/h (2 Bft) 96,22 %
17.04.2019 19:00 18,0 C 17,3 C 15,7 C 64 % 1019,4 hPa 0,0 l/m 0,23 h 0,00 h 70 W/m 8,8 km/h (2 Bft) 98,03 %
17.04.2019 20:00 16,7 C 14,6 C 13,3 C 68 % 1019,8 hPa 0,0 l/m 0,00 h 0,00 h 15 W/m 3,8 km/h (1 Bft) 98,02 %
17.04.2019 21:00 14,7 C 12,0 C 10,9 C 73 % 1020,2 hPa 0,0 l/m 0,00 h 0,00 h 0 W/m 3,2 km/h (1 Bft) 97,01 %
17.04.2019 22:00 13,0 C 11,2 C 10,0 C 79 % 1020,2 hPa 0,0 l/m 0,00 h 0,00 h 0 W/m 2,7 km/h (1 Bft) 97,35 %
17.04.2019 23:00 11,8 C 9,9 C 8,9 C 81 % 1020,6 hPa 0,0 l/m 0,00 h 0,00 h 0 W/m 1,0 km/h (0 Bft) 97,29 %
18.04.2019 00:00 11,0 C 10,4 C 9,1 C 82 % 1021,0 hPa 0,0 l/m 0,00 h 0,00 h 0 W/m 1,8 km/h (1 Bft) 98,26 %
18.04.2019 01:00 10,9 C 10,1 C 9,0 C 80 % 1021,0 hPa 0,0 l/m 0,00 h 0,00 h 0 W/m 1,0 km/h (0 Bft) 98,43 %
18.04.2019 02:00 11,0 C 10,7 C 9,4 C 78 % 1021,0 hPa 0,0 l/m 0,00 h 0,00 h 0 W/m 3,1 km/h (1 Bft) 96,22 %
18.04.2019 03:00 11,3 C 11,0 C 9,4 C 74 % 1021,2 hPa 0,0 l/m 0,00 h 0,00 h 0 W/m 2,9 km/h (1 Bft) 97,01 %
18.04.2019 04:00 11,3 C 10,0 C 8,9 C 72 % 1021,5 hPa 0,0 l/m 0,00 h 0,00 h 0 W/m 1,9 km/h (1 Bft) 97,41 %
18.04.2019 05:00 10,5 C 9,6 C 8,2 C 74 % 1021,6 hPa 0,0 l/m 0,00 h 0,00 h 0 W/m 1,7 km/h (1 Bft) 95,12 %
18.04.2019 06:00 10,3 C 9,4 C 8,1 C 76 % 1021,7 hPa 0,0 l/m 0,00 h 0,00 h 7 W/m 2,3 km/h (1 Bft) 98,31 %
18.04.2019 07:00 9,6 C 8,3 C 7,1 C 77 % 1022,1 hPa 0,0 l/m 0,00 h 0,00 h 27 W/m 3,1 km/h (1 Bft) 97,82 %
18.04.2019 08:00 9,7 C 11,5 C 8,7 C 81 % 1022,7 hPa 0,0 l/m 0,00 h 0,00 h 53 W/m 4,7 km/h (1 Bft) 97,08 %
18.04.2019 09:00 13,4 C 20,0 C 16,5 C 73 % 1023,0 hPa 0,0 l/m 0,00 h 0,00 h 72 W/m 8,5 km/h (2 Bft) 98,44 %
18.04.2019 10:00 17,2 C 23,1 C 23,3 C 61 % 1023,1 hPa 0,0 l/m 0,83 h 0,00 h 509 W/m 11,5 km/h (2 Bft) 97,25 %
18.04.2019 11:00 19,5 C 24,3 C 23,7 C 51 % 1023,0 hPa 0,0 l/m 1,00 h 0,00 h 711 W/m 16,4 km/h (3 Bft) 96,90 %
18.04.2019 12:00 20,9 C 25,3 C 22,0 C 46 % 1022,6 hPa 0,0 l/m 1,00 h 0,00 h 794 W/m 21,2 km/h (4 Bft) 96,69 %
18.04.2019 13:00 22,5 C 27,9 C 28,6 C 45 % 1022,1 hPa 0,0 l/m 1,00 h 0,00 h 827 W/m 16,9 km/h (3 Bft) 98,13 %
18.04.2019 14:00 23,2 C 27,4 C 28,9 C 40 % 1021,6 hPa 0,0 l/m 1,00 h 0,00 h 811 W/m 17,0 km/h (3 Bft) 99,29 %
18.04.2019 15:00 23,8 C 27,6 C 24,1 C 38 % 1021,1 hPa 0,0 l/m 1,00 h 0,00 h 718 W/m 16,5 km/h (3 Bft) 94,35 %
18.04.2019 16:00 24,0 C 26,3 C 25,2 C 38 % 1020,9 hPa 0,0 l/m 1,00 h 0,00 h 635 W/m 15,8 km/h (3 Bft) 99,15 %
18.04.2019 17:00 23,8 C 24,9 C 23,0 C 38 % 1020,8 hPa 0,0 l/m 1,00 h 0,00 h 481 W/m 14,8 km/h (3 Bft) 99,64 %
18.04.2019 18:00 22,8 C 22,1 C 19,4 C 40 % 1020,8 hPa 0,0 l/m 0,63 h 0,00 h 217 W/m 12,3 km/h (3 Bft) 94,95 %
18.04.2019 19:00 21,1 C 20,0 C 18,3 C 43 % 1021,0 hPa 0,0 l/m 0,00 h 0,00 h 37 W/m 12,1 km/h (2 Bft) 98,70 %
18.04.2019 20:00 19,1 C 17,4 C 16,2 C 46 % 1021,5 hPa 0,0 l/m 0,00 h 0,00 h 14 W/m 12,3 km/h (3 Bft) 98,33 %
18.04.2019 21:00 17,2 C 15,6 C 14,4 C 50 % 1022,3 hPa 0,0 l/m 0,00 h 0,00 h 0 W/m 9,1 km/h (2 Bft) 96,36 %
18.04.2019 22:00 15,8 C 14,4 C 13,3 C 54 % 1022,9 hPa 0,0 l/m 0,00 h 0,00 h 0 W/m 6,6 km/h (2 Bft) 98,14 %
18.04.2019 23:00 14,8 C 13,1 C 12,0 C 57 % 1023,3 hPa 0,0 l/m 0,00 h 0,00 h 0 W/m 5,5 km/h (1 Bft) 96,58 %
19.04.2019 00:00 13,8 C 12,4 C 11,3 C 60 % 1023,7 hPa 0,0 l/m 0,00 h 0,00 h 0 W/m 5,9 km/h (2 Bft) 98,74 %
19.04.2019 01:00 12,9 C 10,9 C 9,6 C 62 % 1023,9 hPa 0,0 l/m 0,00 h 0,00 h 0 W/m 1,0 km/h (0 Bft) 96,48 %
19.04.2019 02:00 11,5 C 9,8 C 8,1 C 65 % 1023,9 hPa 0,0 l/m 0,00 h 0,00 h 0 W/m 1,1 km/h (0 Bft) 96,65 %
19.04.2019 03:00 10,8 C 9,8 C 8,3 C 67 % 1023,9 hPa 0,0 l/m 0,00 h 0,00 h 0 W/m 2,5 km/h (1 Bft) 97,36 %
19.04.2019 04:00 10,0 C 7,9 C 6,7 C 69 % 1024,2 hPa 0,0 l/m 0,00 h 0,00 h 0 W/m 0,1 km/h (0 Bft) 99,46 %
19.04.2019 05:00 8,9 C 7,6 C 6,2 C 72 % 1024,5 hPa 0,0 l/m 0,00 h 0,00 h 0 W/m 0,2 km/h (0 Bft) 96,03 %
19.04.2019 06:00 8,3 C 7,6 C 6,1 C 76 % 1024,8 hPa 0,0 l/m 0,00 h 0,00 h 9 W/m 2,4 km/h (1 Bft) 97,11 %
19.04.2019 07:00 8,6 C 8,7 C 7,3 C 78 % 1025,3 hPa 0,0 l/m 0,00 h 0,00 h 26 W/m 2,2 km/h (1 Bft) 98,59 %
19.04.2019 08:00 10,1 C 12,0 C 9,4 C 77 % 1025,6 hPa 0,0 l/m 0,00 h 0,00 h 57 W/m 6,8 km/h (2 Bft) 97,86 %
19.04.2019 09:00 14,3 C 22,0 C 18,2 C 68 % 1025,8 hPa 0,0 l/m 0,00 h 0,00 h 57 W/m 7,7 km/h (2 Bft) 96,49 %
19.04.2019 10:00 18,8 C 25,6 C 25,3 C 55 % 1026,1 hPa 0,0 l/m 0,80 h 0,00 h 490 W/m 9,2 km/h (2 Bft) 96,15 %
19.04.2019 11:00 21,1 C 28,1 C 26,3 C 50 % 1025,9 hPa 0,0 l/m 1,00 h 0,00 h 725 W/m 9,0 km/h (2 Bft) 97,78 %
19.04.2019 12:00 23,7 C 31,4 C 26,4 C 47 % 1025,5 hPa 0,0 l/m 1,00 h 0,00 h 813 W/m 10,3 km/h (2 Bft) 98,22 %
19.04.2019 13:00 24,9 C 29,8 C 31,5 C 39 % 1025,2 hPa 0,0 l/m 1,00 h 0,00 h 850 W/m 14,6 km/h (3 Bft) 97,78 %
19.04.2019 14:00 25,3 C 29,5 C 31,5 C 35 % 1025,0 hPa 0,0 l/m 1,00 h 0,00 h 832 W/m 14,8 km/h (3 Bft) 97,89 %
19.04.2019 15:00 25,7 C 29,0 C 25,5 C 32 % 1024,7 hPa 0,0 l/m 1,00 h 0,00 h 761 W/m 16,7 km/h (3 Bft) 96,38 %
19.04.2019 16:00 26,0 C 29,0 C 26,7 C 31 % 1024,4 hPa 0,0 l/m 1,00 h 0,00 h 642 W/m 10,2 km/h (2 Bft) 98,55 %
19.04.2019 17:00 26,3 C 27,2 C 25,0 C 31 % 1024,1 hPa 0,0 l/m 1,00 h 0,00 h 483 W/m 11,0 km/h (2 Bft) 98,41 %
19.04.2019 18:00 25,5 C 24,5 C 21,1 C 32 % 1024,1 hPa 0,0 l/m 0,67 h 0,00 h 229 W/m 8,2 km/h (2 Bft) 95,35 %
19.04.2019 19:00 23,5 C 21,6 C 18,0 C 35 % 1024,2 hPa 0,0 l/m 0,00 h 0,00 h 29 W/m 5,6 km/h (1 Bft) 98,50 %
19.04.2019 20:00 20,9 C 18,6 C 16,1 C 45 % 1024,8 hPa 0,0 l/m 0,00 h 0,00 h 11 W/m 6,0 km/h (2 Bft) 98,44 %
19.04.2019 21:00 18,7 C 16,6 C 14,5 C 47 % 1025,3 hPa 0,0 l/m 0,00 h 0,00 h 0 W/m 2,5 km/h (1 Bft) 97,27 %
19.04.2019 22:00 17,2 C 14,9 C 13,1 C 51 % 1025,6 hPa 0,0 l/m 0,00 h 0,00 h 0 W/m 1,1 km/h (0 Bft) 96,66 %
19.04.2019 23:00 15,3 C 12,9 C 11,2 C 57 % 1026,0 hPa 0,0 l/m 0,00 h 0,00 h 0 W/m 0,0 km/h (0 Bft) 98,13 %
20.04.2019 00:00 13,9 C 12,1 C 10,6 C 61 % 1026,2 hPa 0,0 l/m 0,00 h 0,00 h 0 W/m 0,0 km/h (0 Bft) 96,79 %
20.04.2019 01:00 12,9 C 11,0 C 9,4 C 65 % 1026,2 hPa 0,0 l/m 0,00 h 0,00 h 0 W/m 0,0 km/h (0 Bft) 98,43 %
20.04.2019 02:00 11,6 C 9,5 C 8,0 C 69 % 1026,0 hPa 0,0 l/m 0,00 h 0,00 h 0 W/m 0,0 km/h (0 Bft) 96,38 %
20.04.2019 03:00 10,3 C 8,3 C 7,2 C 73 % 1026,0 hPa 0,0 l/m 0,00 h 0,00 h 0 W/m 0,0 km/h (0 Bft) 96,65 %
20.04.2019 04:00 9,2 C 7,6 C 6,6 C 78 % 1026,2 hPa 0,0 l/m 0,00 h 0,00 h 0 W/m 0,0 km/h (0 Bft) 98,09 %
20.04.2019 05:00 8,3 C 6,8 C 5,9 C 81 % 1026,2 hPa 0,0 l/m 0,00 h 0,00 h 0 W/m 0,0 km/h (0 Bft) 98,92 %
20.04.2019 06:00 8,0 C 7,5 C 6,0 C 85 % 1026,3 hPa 0,0 l/m 0,00 h 0,00 h 10 W/m 0,0 km/h (0 Bft) 96,98 %
20.04.2019 07:00 8,4 C 8,7 C 7,1 C 86 % 1026,5 hPa 0,0 l/m 0,00 h 0,00 h 26 W/m 0,0 km/h (0 Bft) 95,94 %
20.04.2019 08:00 9,9 C 12,7 C 9,4 C 85 % 1026,7 hPa 0,0 l/m 0,00 h 0,00 h 60 W/m 2,6 km/h (1 Bft) 99,36 %
20.04.2019 09:00 15,1 C 23,5 C 19,8 C 71 % 1026,9 hPa 0,0 l/m 0,00 h 0,00 h 53 W/m 5,9 km/h (2 Bft) 97,22 %
20.04.2019 10:00 20,4 C 27,4 C 26,8 C 54 % 1026,8 hPa 0,0 l/m 0,77 h 0,00 h 485 W/m 7,4 km/h (2 Bft) 97,93 %
20.04.2019 11:00 23,4 C 31,3 C 29,0 C 47 % 1026,4 hPa 0,0 l/m 1,00 h 0,00 h 724 W/m 8,4 km/h (2 Bft) 96,01 %
20.04.2019 12:00 25,5 C 32,6 C 29,5 C 41 % 1026,2 hPa 0,0 l/m 1,00 h 0,00 h 814 W/m 10,9 km/h (2 Bft) 97,83 %
20.04.2019 13:00 26,7 C 33,6 C 34,4 C 35 % 1025,9 hPa 0,0 l/m 1,00 h 0,00 h 855 W/m 11,3 km/h (2 Bft) 97,86 %
20.04.2019 14:00 26,8 C 31,6 C 32,3 C 31 % 1025,2 hPa 0,0 l/m 1,00 h 0,00 h 833 W/m 12,3 km/h (3 Bft) 97,22 %
20.04.2019 15:00 27,0 C 32,6 C 26,2 C 33 % 1024,7 hPa 0,0 l/m 1,00 h 0,00 h 749 W/m 8,9 km/h (2 Bft) 98,43 %
20.04.2019 16:00 27,1 C 30,6 C 26,7 C 34 % 1024,0 hPa 0,0 l/m 1,00 h 0,00 h 621 W/m 9,0 km/h (2 Bft) 96,72 %
20.04.2019 17:00 26,9 C 28,0 C 25,1 C 36 % 1023,5 hPa 0,0 l/m 1,00 h 0,00 h 455 W/m 9,0 km/h (2 Bft) 97,80 %
20.04.2019 18:00 25,8 C 24,6 C 22,1 C 37 % 1023,2 hPa 0,0 l/m 0,70 h 0,00 h 224 W/m 9,6 km/h (2 Bft) 97,83 %
20.04.2019 19:00 23,2 C 21,4 C 20,0 C 41 % 1023,0 hPa 0,0 l/m 0,00 h 0,00 h 41 W/m 9,7 km/h (2 Bft) 96,80 %
20.04.2019 20:00 21,0 C 19,0 C 17,9 C 44 % 1023,1 hPa 0,0 l/m 0,00 h 0,00 h 14 W/m 7,8 km/h (2 Bft) 97,22 %
20.04.2019 21:00 19,1 C 17,2 C 16,1 C 48 % 1023,3 hPa 0,0 l/m 0,00 h 0,00 h 0 W/m 8,6 km/h (2 Bft) 98,22 %
20.04.2019 22:00 18,1 C 17,0 C 15,9 C 48 % 1023,4 hPa 0,0 l/m 0,00 h 0,00 h 0 W/m 10,7 km/h (2 Bft) 98,15 %
20.04.2019 23:00 17,3 C 16,0 C 14,9 C 48 % 1023,4 hPa 0,0 l/m 0,00 h 0,00 h 0 W/m 10,9 km/h (2 Bft) 96,01 %
21.04.2019 00:00 16,1 C 14,7 C 13,7 C 49 % 1023,2 hPa 0,0 l/m 0,00 h 0,00 h 0 W/m 9,3 km/h (2 Bft) 98,14 %
21.04.2019 01:00 14,9 C 13,5 C 12,5 C 51 % 1022,7 hPa 0,0 l/m 0,00 h 0,00 h 0 W/m 7,4 km/h (2 Bft) 97,65 %
21.04.2019 02:00 13,7 C 11,2 C 10,3 C 54 % 1022,4 hPa 0,0 l/m 0,00 h 0,00 h 0 W/m 1,1 km/h (0 Bft) 98,72 %
21.04.2019 03:00 11,7 C 9,8 C 8,7 C 59 % 1021,9 hPa 0,0 l/m 0,00 h 0,00 h 0 W/m 0,9 km/h (0 Bft) 96,16 %
21.04.2019 04:00 10,9 C 9,9 C 8,8 C 61 % 1021,6 hPa 0,0 l/m 0,00 h 0,00 h 0 W/m 2,9 km/h (1 Bft) 96,58 %
21.04.2019 05:00 10,4 C 9,0 C 8,1 C 63 % 1020,9 hPa 0,0 l/m 0,00 h 0,00 h 0 W/m 3,8 km/h (1 Bft) 98,61 %
21.04.2019 06:00 9,5 C 7,9 C 7,2 C 66 % 1020,6 hPa 0,0 l/m 0,00 h 0,00 h 10 W/m 3,8 km/h (1 Bft) 98,24 %
21.04.2019 07:00 9,0 C 8,8 C 7,7 C 70 % 1020,4 hPa 0,0 l/m 0,00 h 0,00 h 31 W/m 4,1 km/h (1 Bft) 95,56 %
21.04.2019 08:00 10,0 C 12,3 C 9,5 C 73 % 1020,2 hPa 0,0 l/m 0,03 h 0,00 h 69 W/m 4,5 km/h (1 Bft) 97,73 %
21.04.2019 09:00 14,7 C 22,6 C 19,7 C 67 % 1020,0 hPa 0,0 l/m 0,00 h 0,00 h 68 W/m 5,9 km/h (2 Bft) 98,29 %
21.04.2019 10:00 19,5 C 25,4 C 26,0 C 51 % 1019,7 hPa 0,0 l/m 0,77 h 0,00 h 474 W/m 8,0 km/h (2 Bft) 97,83 %
21.04.2019 11:00 22,2 C 28,5 C 28,0 C 45 % 1019,1 hPa 0,0 l/m 1,00 h 0,00 h 724 W/m 8,3 km/h (2 Bft) 97,16 %
21.04.2019 12:00 24,4 C 31,4 C 30,0 C 41 % 1018,3 hPa 0,0 l/m 1,00 h 0,00 h 812 W/m 10,0 km/h (2 Bft) 96,82 %
21.04.2019 13:00 25,7 C 32,3 C 33,5 C 37 % 1017,5 hPa 0,0 l/m 1,00 h 0,00 h 846 W/m 12,8 km/h (3 Bft) 97,96 %
21.04.2019 14:00 25,9 C 31,3 C 32,1 C 35 % 1016,8 hPa 0,0 l/m 1,00 h 0,00 h 833 W/m 11,2 km/h (2 Bft) 97,27 %
21.04.2019 15:00 26,5 C 31,6 C 26,0 C 33 % 1015,8 hPa 0,0 l/m 1,00 h 0,00 h 771 W/m 11,7 km/h (2 Bft) 97,99 %
21.04.2019 16:00 26,8 C 30,4 C 26,0 C 31 % 1015,0 hPa 0,0 l/m 1,00 h 0,00 h 651 W/m 10,2 km/h (2 Bft) 98,05 %
21.04.2019 17:00 26,6 C 28,3 C 24,3 C 33 % 1014,3 hPa 0,0 l/m 1,00 h 0,00 h 485 W/m 9,0 km/h (2 Bft) 96,63 %
21.04.2019 18:00 25,7 C 24,5 C 21,5 C 34 % 1013,6 hPa 0,0 l/m 0,70 h 0,00 h 242 W/m 8,0 km/h (2 Bft) 98,08 %
21.04.2019 19:00 23,4 C 21,5 C 19,4 C 37 % 1013,1 hPa 0,0 l/m 0,00 h 0,00 h 40 W/m 6,1 km/h (2 Bft) 96,70 %
21.04.2019 20:00 21,2 C 18,8 C 17,3 C 41 % 1013,0 hPa 0,0 l/m 0,00 h 0,00 h 13 W/m 5,9 km/h (2 Bft) 97,24 %
21.04.2019 21:00 19,1 C 16,1 C 14,5 C 47 % 1013,1 hPa 0,0 l/m 0,00 h 0,00 h 0 W/m 0,6 km/h (0 Bft) 97,72 %
21.04.2019 22:00 16,8 C 14,2 C 12,5 C 54 % 1012,8 hPa 0,0 l/m 0,00 h 0,00 h 0 W/m 0,4 km/h (0 Bft) 97,11 %
21.04.2019 23:00 14,7 C 12,0 C 10,7 C 60 % 1012,4 hPa 0,0 l/m 0,00 h 0,00 h 0 W/m 0,0 km/h (0 Bft) 97,31 %
Min-Datum _ 15.04.19 15.04.19 15.04.19 19.04.19 21.04.19 - - - - 15.04.19 18.04.19
_ Min-Zeit 05:46 05:14 05:12 17:24 23:52 - - - - 00:34 04:22
Minimum _ 3,3 C 2,2 C 1,7 C 29 % 1012,2 hPa - - - - 0,0 km/h (0 Bft) 33,33 %
Max-Datum _ 20.04.19 20.04.19 20.04.19 15.04.19 20.04.19 15.04.19 17.04.19 17.04.19 20.04.19 16.04.19 15.04.19
_ Max-Zeit 14:06 13:32 13:32 07:42 09:32 00:00 18:08 06:26 13:40 12:40 00:00
Maximum _ 27,4 C 35,0 C 36,1 C 93 % 1027,0 hPa 0,0 l/m 0,07 h 0,03 h 865 W/m 38,6 km/h
S (5 Bft)
100,00 %
Durchschnitt _ 15,4 C 16,3 C 14,9 C 61 % 1020,6 hPa #0,0 l/m #53:08 h #1:52 h 358 W/m 8,1 km/h (2 Bft) 97,39 %
© 2019 W. Hausmann